Aviation Digital Data Service (ADDS)

Output produced by METARs form (1931 UTC 31 January 2023)
found at http://www.aviationweather.gov/metar/data/
 
LHKE 311845Z 28010KT CAVOK 04/M01 Q1018 NOSIG RMK BLU
LHKE 311815Z 29010KT CAVOK 04/M01 Q1018 NOSIG RMK BLU
LHKE 311745Z 30010KT CAVOK 04/M01 Q1018 NOSIG RMK BLU
LHKE 311715Z 31016KT CAVOK 04/M01 Q1018 NOSIG RMK BLU
LHKE 311645Z 30012KT CAVOK 04/M02 Q1018 NOSIG RMK BLU
LHKE 311615Z 31008KT CAVOK 03/M03 Q1018 NOSIG RMK BLU
LHKE 311545Z 31010KT CAVOK 03/M04 Q1018 NOSIG RMK BLU
LHKE 311515Z 32010KT CAVOK 05/M04 Q1018 NOSIG RMK BLU
LHKE 311445Z 32014KT CAVOK 05/M04 Q1018 NOSIG RMK BLU
LHKE 311415Z 33016KT 310V010 CAVOK 06/M05 Q1018 NOSIG RMK BLU
LHKE 311345Z 33019G35KT CAVOK 06/M05 Q1017 NOSIG RMK BLU
TAF LHKE 311715Z 3118/0103 30014KT CAVOK 
     BECMG 3118/3120 28010KT 
     BECMG 3120/3122 28014KT 9999 SCT025 BKN033 OVC060 
     PROB30 
     TEMPO 3122/0103 8000 -RA -RASN BKN010 OVC030